Time,TemperatureF,DewpointF,PressureIn,WindDirection,WindDirectionDegrees,WindSpeedMPH,WindSpeedGustMPH,Humidity,HourlyPrecipIn,Conditions,Clouds,dailyrainin,SoftwareType,DateUTC
2013-07-08 00:25:00,72.8,70.0,29.80,SE,134,0.0,-999.0,92,-99.99,,,0.00,weatherlink.com 1.10,2013-07-08 04:25:00,
2013-07-08 00:40:00,72.5,70.0,29.80,SE,132,0.0,-999.0,92,-99.99,,,0.00,weatherlink.com 1.10,2013-07-08 04:40:00,
2013-07-08 00:55:00,72.5,70.0,29.79,SE,136,0.0,-999.0,93,-99.99,,,0.00,weatherlink.com 1.10,2013-07-08 04:55:00,
2013-07-08 01:10:00,72.2,70.0,29.80,SE,135,0.0,-999.0,93,-99.99,,,0.00,weatherlink.com 1.10,2013-07-08 05:10:00,
2013-07-08 01:25:00,71.9,70.0,29.79,SE,136,0.0,-999.0,94,-99.99,,,0.00,weatherlink.com 1.10,2013-07-08 05:25:00,
2013-07-08 01:40:00,71.8,70.0,29.79,SE,135,0.0,-999.0,93,-99.99,,,0.00,weatherlink.com 1.10,2013-07-08 05:40:00,
2013-07-08 01:55:00,71.7,70.0,29.80,SE,136,0.0,-999.0,94,-99.99,,,0.00,weatherlink.com 1.10,2013-07-08 05:55:00,
2013-07-08 02:10:00,71.8,70.0,29.80,SE,136,0.0,-999.0,94,-99.99,,,0.00,weatherlink.com 1.10,2013-07-08 06:10:00,
2013-07-08 02:25:00,71.7,70.0,29.80,SE,136,0.0,-999.0,94,-99.99,,,0.00,weatherlink.com 1.10,2013-07-08 06:25:00,
2013-07-08 02:40:00,71.5,70.0,29.80,SE,136,0.0,-999.0,94,-99.99,,,0.00,weatherlink.com 1.10,2013-07-08 06:40:00,
2013-07-08 02:55:00,71.4,70.0,29.80,SE,136,0.0,-999.0,94,-99.99,,,0.00,weatherlink.com 1.10,2013-07-08 06:55:00,
2013-07-08 03:10:00,71.6,70.0,29.79,SE,136,0.0,-999.0,95,-99.99,,,0.00,weatherlink.com 1.10,2013-07-08 07:10:00,
2013-07-08 03:25:00,71.8,70.0,29.79,SE,136,0.0,-999.0,95,-99.99,,,0.00,weatherlink.com 1.10,2013-07-08 07:25:00,
2013-07-08 03:40:00,71.9,71.0,29.79,SE,136,0.0,-999.0,95,-99.99,,,0.00,weatherlink.com 1.10,2013-07-08 07:40:00,
2013-07-08 03:55:00,72.1,70.0,29.79,SE,136,0.0,-999.0,94,-99.99,,,0.00,weatherlink.com 1.10,2013-07-08 07:55:00,
2013-07-08 04:10:00,72.2,70.0,29.79,SE,136,0.0,-999.0,94,-99.99,,,0.00,weatherlink.com 1.10,2013-07-08 08:10:00,
2013-07-08 04:25:00,72.2,70.0,29.79,SE,136,0.0,-999.0,94,-99.99,,,0.00,weatherlink.com 1.10,2013-07-08 08:25:00,
2013-07-08 04:40:00,72.3,71.0,29.79,SE,136,0.0,-999.0,94,-99.99,,,0.00,weatherlink.com 1.10,2013-07-08 08:40:00,
2013-07-08 04:55:00,72.2,70.0,29.80,SE,136,0.0,-999.0,94,-99.99,,,0.00,weatherlink.com 1.10,2013-07-08 08:55:00,
2013-07-08 05:10:00,72.1,70.0,29.80,SE,136,0.0,-999.0,94,-99.99,,,0.00,weatherlink.com 1.10,2013-07-08 09:10:00,
2013-07-08 05:25:00,71.9,70.0,29.80,SE,136,0.0,-999.0,94,-99.99,,,0.00,weatherlink.com 1.10,2013-07-08 09:25:00,
2013-07-08 05:40:00,71.9,71.0,29.80,SE,136,0.0,-999.0,95,-99.99,,,0.00,weatherlink.com 1.10,2013-07-08 09:40:00,
2013-07-08 05:55:00,72.1,71.0,29.80,SE,136,0.0,-999.0,95,-99.99,,,0.00,weatherlink.com 1.10,2013-07-08 09:55:00,
2013-07-08 06:10:00,72.3,71.0,29.80,SE,136,0.0,-999.0,95,-99.99,,,0.00,weatherlink.com 1.10,2013-07-08 10:10:00,
2013-07-08 06:25:00,72.5,71.0,29.81,SE,136,0.0,-999.0,95,-99.99,,,0.00,weatherlink.com 1.10,2013-07-08 10:25:00,
2013-07-08 06:40:00,73.5,72.0,29.80,SE,136,0.0,-999.0,95,-99.99,,,0.00,weatherlink.com 1.10,2013-07-08 10:40:00,
2013-07-08 06:55:00,75.3,73.0,29.81,North,360,0.0,-999.0,92,-99.99,,,0.00,weatherlink.com 1.10,2013-07-08 10:55:00,
2013-07-08 07:10:00,76.4,73.0,29.81,North,360,0.0,-999.0,90,-99.99,,,0.00,weatherlink.com 1.10,2013-07-08 11:10:00,
2013-07-08 07:25:00,76.9,74.0,29.81,North,360,0.0,-999.0,90,-99.99,,,0.00,weatherlink.com 1.10,2013-07-08 11:25:00,
2013-07-08 07:40:00,77.4,74.0,29.82,North,360,0.0,-999.0,89,-99.99,,,0.00,weatherlink.com 1.10,2013-07-08 11:40:00,
2013-07-08 07:55:00,77.2,74.0,29.82,NNE,25,0.0,-999.0,88,-99.99,,,0.00,weatherlink.com 1.10,2013-07-08 11:55:00,
2013-07-08 08:10:00,77.9,75.0,29.83,North,360,0.0,-999.0,89,-99.99,,,0.00,weatherlink.com 1.10,2013-07-08 12:10:00,
2013-07-08 08:25:00,79.6,75.0,29.83,North,360,0.0,-999.0,85,-99.99,,,0.00,weatherlink.com 1.10,2013-07-08 12:25:00,
2013-07-08 08:40:00,80.3,74.0,29.83,NNE,24,0.0,-999.0,82,-99.99,,,0.00,weatherlink.com 1.10,2013-07-08 12:40:00,
2013-07-08 08:55:00,80.1,74.0,29.83,NNE,13,0.0,-999.0,82,-99.99,,,0.00,weatherlink.com 1.10,2013-07-08 12:55:00,
2013-07-08 09:10:00,78.8,74.0,29.84,NE,45,0.0,-999.0,84,-99.99,,,0.00,weatherlink.com 1.10,2013-07-08 13:10:00,
2013-07-08 09:25:00,76.9,72.0,29.84,East,82,0.0,-999.0,84,-99.99,,,0.00,weatherlink.com 1.10,2013-07-08 13:25:00,
2013-07-08 09:40:00,77.3,71.0,29.84,East,88,0.0,-999.0,81,-99.99,,,0.00,weatherlink.com 1.10,2013-07-08 13:40:00,
2013-07-08 09:55:00,77.2,71.0,29.84,North,360,0.0,-999.0,81,-99.99,,,0.00,weatherlink.com 1.10,2013-07-08 13:55:00,
2013-07-08 10:10:00,76.8,71.0,29.86,North,360,0.0,-999.0,81,-99.99,,,0.00,weatherlink.com 1.10,2013-07-08 14:10:00,
2013-07-08 10:25:00,75.9,70.0,29.86,East,87,0.0,-999.0,82,-99.99,,,0.00,weatherlink.com 1.10,2013-07-08 14:25:00,
2013-07-08 10:40:00,75.7,70.0,29.87,East,80,0.0,-999.0,82,-99.99,,,0.00,weatherlink.com 1.10,2013-07-08 14:40:00,
2013-07-08 10:55:00,75.6,70.0,29.87,ENE,74,0.0,-999.0,83,-99.99,,,0.00,weatherlink.com 1.10,2013-07-08 14:55:00,
2013-07-08 11:10:00,75.5,70.0,29.87,ENE,76,0.0,-999.0,83,-99.99,,,0.00,weatherlink.com 1.10,2013-07-08 15:10:00,
2013-07-08 11:25:00,75.7,70.0,29.86,North,360,0.0,-999.0,82,-99.99,,,0.00,weatherlink.com 1.10,2013-07-08 15:25:00,
2013-07-08 11:40:00,74.6,70.0,29.87,East,86,0.0,-999.0,84,-99.99,,,0.00,weatherlink.com 1.10,2013-07-08 15:40:00,
2013-07-08 11:55:00,74.1,69.0,29.87,NNE,27,0.0,-999.0,85,-99.99,,,0.00,weatherlink.com 1.10,2013-07-08 15:55:00,
2013-07-08 12:10:00,73.5,69.0,29.88,ESE,108,0.0,-999.0,85,-99.99,,,0.00,weatherlink.com 1.10,2013-07-08 16:10:00,
2013-07-08 12:25:00,73.2,69.0,29.88,ENE,58,0.0,-999.0,85,-99.99,,,0.00,weatherlink.com 1.10,2013-07-08 16:25:00,
2013-07-08 12:40:00,72.7,68.0,29.89,East,101,0.0,-999.0,85,-99.99,,,0.00,weatherlink.com 1.10,2013-07-08 16:40:00,
2013-07-08 13:10:00,71.4,67.0,29.89,ESE,117,0.0,-999.0,86,-99.99,,,0.00,weatherlink.com 1.10,2013-07-08 17:10:00,
2013-07-08 13:25:00,71.4,66.0,29.89,SE,135,0.0,-999.0,83,-99.99,,,0.00,weatherlink.com 1.10,2013-07-08 17:25:00,
2013-07-08 13:55:00,70.9,66.0,29.88,East,86,0.0,-999.0,83,-99.99,,,0.00,weatherlink.com 1.10,2013-07-08 17:55:00,
2013-07-08 14:25:00,73.1,67.0,29.89,North,360,0.0,-999.0,82,-99.99,,,0.00,weatherlink.com 1.10,2013-07-08 18:25:00,
2013-07-08 14:55:00,72.7,68.0,29.88,North,360,0.0,-999.0,84,-99.99,,,0.00,weatherlink.com 1.10,2013-07-08 18:55:00,
2013-07-08 15:10:00,72.5,65.0,29.89,North,360,0.0,-999.0,78,-99.99,,,0.00,weatherlink.com 1.10,2013-07-08 19:10:00,
2013-07-08 15:25:00,70.8,65.0,29.89,SE,130,0.0,-999.0,82,-99.99,,,0.00,weatherlink.com 1.10,2013-07-08 19:25:00,
2013-07-08 15:55:00,69.7,64.0,29.89,East,89,0.0,-999.0,83,-99.99,,,0.00,weatherlink.com 1.10,2013-07-08 19:55:00,
2013-07-08 16:10:00,70.6,65.0,29.89,North,360,0.0,-999.0,81,-99.99,,,0.00,weatherlink.com 1.10,2013-07-08 20:10:00,
2013-07-08 16:25:00,69.0,63.0,29.89,South,182,0.0,-999.0,82,-99.99,,,0.00,weatherlink.com 1.10,2013-07-08 20:25:00,
2013-07-08 16:40:00,69.8,64.0,29.89,North,5,0.0,-999.0,81,-99.99,,,0.00,weatherlink.com 1.10,2013-07-08 20:40:00,
2013-07-08 16:55:00,69.1,63.0,29.89,NE,54,0.0,-999.0,82,-99.99,,,0.00,weatherlink.com 1.10,2013-07-08 20:55:00,
2013-07-08 17:10:00,68.9,64.0,29.89,East,87,0.0,-999.0,83,-99.99,,,0.00,weatherlink.com 1.10,2013-07-08 21:10:00,
2013-07-08 17:40:00,68.1,63.0,29.89,SE,137,0.0,-999.0,84,-99.99,,,0.00,weatherlink.com 1.10,2013-07-08 21:40:00,
2013-07-08 17:55:00,67.6,63.0,29.90,East,82,0.0,-999.0,85,-99.99,,,0.00,weatherlink.com 1.10,2013-07-08 21:55:00,
2013-07-08 18:40:00,66.9,63.0,29.89,ENE,74,0.0,-999.0,86,-99.99,,,0.00,weatherlink.com 1.10,2013-07-08 22:40:00,
2013-07-08 18:55:00,66.6,63.0,29.90,SSE,166,0.0,-999.0,88,-99.99,,,0.01,weatherlink.com 1.10,2013-07-08 22:55:00,
2013-07-08 19:10:00,66.2,63.0,29.91,SSE,166,0.0,-999.0,90,-99.99,,,0.01,weatherlink.com 1.10,2013-07-08 23:10:00,
2013-07-08 19:25:00,65.8,63.0,29.91,ENE,65,0.0,-999.0,91,-99.99,,,0.01,weatherlink.com 1.10,2013-07-08 23:25:00,
2013-07-08 19:40:00,65.6,63.0,29.92,North,5,0.0,-999.0,92,-99.99,,,0.01,weatherlink.com 1.10,2013-07-08 23:40:00,
2013-07-08 20:25:00,64.9,63.0,29.92,ENE,67,0.0,-999.0,93,-99.99,,,0.01,weatherlink.com 1.10,2013-07-09 00:25:00,
2013-07-08 20:40:00,64.8,63.0,29.92,ENE,57,0.0,-999.0,93,-99.99,,,0.01,weatherlink.com 1.10,2013-07-09 00:40:00,
2013-07-08 21:25:00,64.2,63.0,29.95,ENE,58,0.0,-999.0,94,-99.99,,,0.01,weatherlink.com 1.10,2013-07-09 01:25:00,
2013-07-08 21:40:00,64.4,63.0,29.95,ENE,58,0.0,-999.0,95,-99.99,,,0.01,weatherlink.com 1.10,2013-07-09 01:40:00,
2013-07-08 21:55:00,64.5,63.0,29.95,NNE,12,0.0,-999.0,95,-99.99,,,0.01,weatherlink.com 1.10,2013-07-09 01:55:00,
2013-07-08 22:40:00,64.2,63.0,29.95,East,83,0.0,-999.0,94,-99.99,,,0.01,weatherlink.com 1.10,2013-07-09 02:40:00,
2013-07-08 22:55:00,64.3,63.0,29.95,East,84,0.0,-999.0,94,-99.99,,,0.01,weatherlink.com 1.10,2013-07-09 02:55:00,
2013-07-08 23:10:00,64.3,63.0,29.96,East,80,0.0,-999.0,94,-99.99,,,0.01,weatherlink.com 1.10,2013-07-09 03:10:00,
2013-07-08 23:25:00,64.5,63.0,29.95,East,80,0.0,-999.0,94,-99.99,,,0.01,weatherlink.com 1.10,2013-07-09 03:25:00,
2013-07-08 23:55:00,64.6,63.0,29.95,NNE,17,0.0,-999.0,94,-99.99,,,0.01,weatherlink.com 1.10,2013-07-09 03:55:00,